createdAt,value
2023-01-13T00:00:07.756Z,10.25
2023-01-13T00:01:07.670Z,10.23
2023-01-13T00:02:07.711Z,10.22
2023-01-13T00:03:07.636Z,10.22
2023-01-13T00:04:07.637Z,10.18
2023-01-13T00:05:07.689Z,10.20
2023-01-13T00:06:07.643Z,10.18
2023-01-13T00:07:07.594Z,10.17
2023-01-13T00:08:07.586Z,10.15
2023-01-13T00:09:07.619Z,10.14
2023-01-13T00:10:07.570Z,10.14
2023-01-13T00:11:07.550Z,10.12
2023-01-13T00:12:07.556Z,10.11
2023-01-13T00:13:07.547Z,10.09
2023-01-13T00:14:07.529Z,10.09
2023-01-13T00:15:07.521Z,10.09
2023-01-13T00:16:07.597Z,10.08
2023-01-13T00:17:07.479Z,10.09
2023-01-13T00:18:07.497Z,10.07
2023-01-13T00:19:07.491Z,10.04
2023-01-13T00:20:07.463Z,10.04
2023-01-13T00:21:07.462Z,10.04
2023-01-13T00:22:07.428Z,10.05
2023-01-13T00:23:07.453Z,10.04
2023-01-13T00:24:07.410Z,10.05
2023-01-13T00:25:07.425Z,10.05
2023-01-13T00:26:07.437Z,10.05
2023-01-13T00:27:07.399Z,10.05
2023-01-13T00:28:07.376Z,10.04
2023-01-13T00:29:07.431Z,10.02
2023-01-13T00:30:07.377Z,10.04
2023-01-13T00:31:07.436Z,10.07
2023-01-13T00:32:07.361Z,10.04
2023-01-13T00:33:07.331Z,10.04
2023-01-13T00:34:07.310Z,10.04
2023-01-13T00:35:07.322Z,10.02
2023-01-13T00:36:07.281Z,10.01
2023-01-13T00:37:07.291Z,10.01
2023-01-13T00:38:07.272Z,10.04
2023-01-13T00:39:07.264Z,10.04
2023-01-13T00:40:07.243Z,10.02
2023-01-13T00:41:07.266Z,10.02
2023-01-13T00:42:07.228Z,10.04
2023-01-13T00:43:07.205Z,10.01
2023-01-13T00:44:07.196Z,10.02
2023-01-13T00:45:07.194Z,10.02
2023-01-13T00:46:07.328Z,10.02
2023-01-13T00:47:07.160Z,10.01
2023-01-13T00:48:07.163Z,9.99
2023-01-13T00:49:07.138Z,9.96
2023-01-13T00:50:07.160Z,9.96
2023-01-13T00:51:07.142Z,9.93
2023-01-13T00:52:07.131Z,9.93
2023-01-13T00:53:07.102Z,9.93
2023-01-13T00:54:07.106Z,9.94
2023-01-13T00:55:07.100Z,9.94
2023-01-13T00:56:07.077Z,9.94
2023-01-13T00:57:07.054Z,9.93
2023-01-13T00:58:07.063Z,9.93
2023-01-13T00:59:07.071Z,9.93
2023-01-13T01:00:07.048Z,9.93
2023-01-13T01:01:07.516Z,9.93
2023-01-13T01:02:07.192Z,9.93
2023-01-13T01:03:06.993Z,9.91
2023-01-13T01:04:06.999Z,9.91
2023-01-13T01:05:06.997Z,9.91
2023-01-13T01:06:06.980Z,9.91
2023-01-13T01:07:06.967Z,9.90
2023-01-13T01:08:06.960Z,9.89
2023-01-13T01:09:06.995Z,9.89
2023-01-13T01:10:06.924Z,9.89
2023-01-13T01:11:06.932Z,9.89
2023-01-13T01:12:06.927Z,9.89
2023-01-13T01:13:06.901Z,9.89
2023-01-13T01:14:06.899Z,9.86
2023-01-13T01:15:06.899Z,9.86
2023-01-13T01:16:06.965Z,9.87
2023-01-13T01:17:06.863Z,9.86
2023-01-13T01:18:06.862Z,9.86
2023-01-13T01:19:06.846Z,9.87
2023-01-13T01:20:06.837Z,9.87
2023-01-13T01:21:06.811Z,9.87
2023-01-13T01:22:06.813Z,9.89
2023-01-13T01:23:06.804Z,9.84
2023-01-13T01:24:06.793Z,9.84
2023-01-13T01:25:06.776Z,9.83
2023-01-13T01:26:06.754Z,9.81
2023-01-13T01:27:06.763Z,9.76
2023-01-13T01:28:06.761Z,9.76
2023-01-13T01:29:06.738Z,9.74
2023-01-13T01:30:06.731Z,9.72
2023-01-13T01:31:06.764Z,9.72
2023-01-13T01:32:06.691Z,9.72
2023-01-13T01:33:06.674Z,9.72
2023-01-13T01:34:06.699Z,9.71
2023-01-13T01:35:06.662Z,9.71
2023-01-13T01:36:06.678Z,9.71
2023-01-13T01:37:06.656Z,9.71
2023-01-13T01:38:06.640Z,9.71
2023-01-13T01:39:06.676Z,9.72
2023-01-13T01:40:06.615Z,9.71
2023-01-13T01:41:06.640Z,9.75
2023-01-13T01:42:06.591Z,9.75
2023-01-13T01:43:06.574Z,9.75
2023-01-13T01:44:06.595Z,9.76
2023-01-13T01:45:06.581Z,9.74
2023-01-13T01:46:06.571Z,9.75
2023-01-13T01:47:06.643Z,9.76
2023-01-13T01:48:06.557Z,9.75
2023-01-13T01:49:06.520Z,9.75
2023-01-13T01:50:06.512Z,9.75
2023-01-13T01:51:06.491Z,9.75
2023-01-13T01:52:06.498Z,9.74
2023-01-13T01:53:06.503Z,9.72
2023-01-13T01:54:06.474Z,9.74
2023-01-13T01:55:06.485Z,9.74
2023-01-13T01:56:06.461Z,9.71
2023-01-13T01:57:06.434Z,9.65
2023-01-13T01:58:06.423Z,9.65
2023-01-13T01:59:06.431Z,9.64
2023-01-13T02:00:06.408Z,9.61
2023-01-13T02:01:06.558Z,9.57
2023-01-13T02:02:06.568Z,9.54
2023-01-13T02:03:06.386Z,9.54
2023-01-13T02:04:06.360Z,9.51
2023-01-13T02:05:06.353Z,9.51
2023-01-13T02:06:06.357Z,9.54
2023-01-13T02:07:06.336Z,9.54
2023-01-13T02:08:06.314Z,9.51
2023-01-13T02:09:06.295Z,9.51
2023-01-13T02:10:06.300Z,9.50
2023-01-13T02:11:06.290Z,9.50
2023-01-13T02:12:06.272Z,9.51
2023-01-13T02:13:06.271Z,9.51
2023-01-13T02:14:06.231Z,9.50
2023-01-13T02:15:06.245Z,9.48
2023-01-13T02:16:06.256Z,9.46
2023-01-13T02:17:06.228Z,9.43
2023-01-13T02:18:06.251Z,9.43
2023-01-13T02:19:06.187Z,9.40
2023-01-13T02:20:06.199Z,9.39
2023-01-13T02:21:06.176Z,9.38
2023-01-13T02:22:06.204Z,9.36
2023-01-13T02:23:06.162Z,9.35
2023-01-13T02:24:06.150Z,9.31
2023-01-13T02:25:06.160Z,9.29
2023-01-13T02:26:06.116Z,9.28
2023-01-13T02:27:06.110Z,9.26
2023-01-13T02:28:06.096Z,9.24
2023-01-13T02:29:06.110Z,9.21
2023-01-13T02:30:06.071Z,9.20
2023-01-13T02:31:06.058Z,9.17
2023-01-13T02:32:06.039Z,9.15
2023-01-13T02:33:06.058Z,9.15
2023-01-13T02:34:06.041Z,9.15
2023-01-13T02:35:06.031Z,9.13
2023-01-13T02:36:06.028Z,9.13
2023-01-13T02:37:06.006Z,9.13
2023-01-13T02:38:05.993Z,9.11
2023-01-13T02:39:05.980Z,9.11
2023-01-13T02:40:05.978Z,9.10
2023-01-13T02:41:05.968Z,9.08
2023-01-13T02:42:05.954Z,9.05
2023-01-13T02:43:05.933Z,9.04
2023-01-13T02:44:05.934Z,9.02
2023-01-13T02:45:05.916Z,9.01
2023-01-13T02:46:06.018Z,8.99
2023-01-13T02:47:05.893Z,8.99
2023-01-13T02:48:05.907Z,8.98
2023-01-13T02:49:05.888Z,8.95
2023-01-13T02:50:05.876Z,8.94
2023-01-13T02:51:05.883Z,8.94
2023-01-13T02:52:05.845Z,8.89
2023-01-13T02:53:05.832Z,8.86
2023-01-13T02:54:05.837Z,8.84
2023-01-13T02:55:05.810Z,8.81
2023-01-13T02:56:05.803Z,8.79
2023-01-13T02:57:05.797Z,8.77
2023-01-13T02:58:05.800Z,8.74
2023-01-13T02:59:05.779Z,8.73
2023-01-13T03:00:05.734Z,8.68
2023-01-13T03:01:05.819Z,8.63
2023-01-13T03:02:05.891Z,8.59
2023-01-13T03:03:05.715Z,8.56
2023-01-13T03:04:05.710Z,8.53
2023-01-13T03:05:05.681Z,8.50
2023-01-13T03:06:05.674Z,8.45
2023-01-13T03:07:05.667Z,8.45
2023-01-13T03:08:05.644Z,8.44
2023-01-13T03:09:05.652Z,8.40
2023-01-13T03:10:05.639Z,8.38
2023-01-13T03:11:05.634Z,8.36
2023-01-13T03:12:05.607Z,8.34
2023-01-13T03:13:05.594Z,8.33
2023-01-13T03:14:05.600Z,8.30
2023-01-13T03:15:05.584Z,8.30
2023-01-13T03:16:05.566Z,8.29
2023-01-13T03:17:05.561Z,8.29
2023-01-13T03:18:05.539Z,8.29
2023-01-13T03:19:05.536Z,8.29
2023-01-13T03:20:05.550Z,8.28
2023-01-13T03:21:05.504Z,8.25
2023-01-13T03:22:05.525Z,8.23
2023-01-13T03:23:05.490Z,8.20
2023-01-13T03:24:05.478Z,8.19
2023-01-13T03:25:05.461Z,8.16
2023-01-13T03:26:05.476Z,8.16
2023-01-13T03:27:05.458Z,8.12
2023-01-13T03:28:05.434Z,8.12
2023-01-13T03:29:05.446Z,8.11
2023-01-13T03:30:05.431Z,8.11
2023-01-13T03:31:05.442Z,8.10
2023-01-13T03:32:05.408Z,8.07
2023-01-13T03:33:05.389Z,8.07
2023-01-13T03:34:05.382Z,8.04
2023-01-13T03:35:05.368Z,8.02
2023-01-13T03:36:05.351Z,8.01
2023-01-13T03:37:05.348Z,8.00
2023-01-13T03:38:05.347Z,7.98
2023-01-13T03:39:05.314Z,7.95
2023-01-13T03:40:05.315Z,7.93
2023-01-13T03:41:05.311Z,7.95
2023-01-13T03:42:05.305Z,7.97
2023-01-13T03:43:05.277Z,7.93
2023-01-13T03:44:05.282Z,7.92
2023-01-13T03:45:05.257Z,7.97
2023-01-13T03:46:05.310Z,7.97
2023-01-13T03:47:05.233Z,8.00
2023-01-13T03:48:05.235Z,8.01
2023-01-13T03:49:05.219Z,8.04
2023-01-13T03:50:05.201Z,8.04
2023-01-13T03:51:05.194Z,8.05
2023-01-13T03:52:05.178Z,8.07
2023-01-13T03:53:05.177Z,8.07
2023-01-13T03:54:05.163Z,8.08
2023-01-13T03:55:05.148Z,8.08
2023-01-13T03:56:05.133Z,8.08
2023-01-13T03:57:05.120Z,8.07
2023-01-13T03:58:05.176Z,8.05
2023-01-13T03:59:05.171Z,8.07
2023-01-13T04:00:05.087Z,8.08
2023-01-13T04:01:05.256Z,8.07
2023-01-13T04:02:05.186Z,8.07
2023-01-13T04:03:05.060Z,8.07
2023-01-13T04:04:05.131Z,8.07
2023-01-13T04:05:05.036Z,8.05
2023-01-13T04:06:05.023Z,8.05
2023-01-13T04:07:05.021Z,8.05
2023-01-13T04:08:05.002Z,8.04
2023-01-13T04:09:04.992Z,8.01
2023-01-13T04:10:05.016Z,8.01
2023-01-13T04:11:04.989Z,7.97
2023-01-13T04:12:04.954Z,7.97
2023-01-13T04:13:04.974Z,7.95
2023-01-13T04:14:04.972Z,7.93
2023-01-13T04:15:04.931Z,7.93
2023-01-13T04:16:04.968Z,7.93
2023-01-13T04:17:04.913Z,7.93
2023-01-13T04:18:04.900Z,7.89
2023-01-13T04:19:04.897Z,7.89
2023-01-13T04:20:05.038Z,7.87
2023-01-13T04:21:04.997Z,7.83
2023-01-13T04:22:04.866Z,7.80
2023-01-13T04:23:04.842Z,7.77
2023-01-13T04:24:04.845Z,7.72
2023-01-13T04:25:04.818Z,7.71
2023-01-13T04:26:04.850Z,7.69
2023-01-13T04:27:04.801Z,7.67
2023-01-13T04:28:04.793Z,7.61
2023-01-13T04:29:04.794Z,7.60
2023-01-13T04:30:04.780Z,7.60
2023-01-13T04:31:04.844Z,7.57
2023-01-13T04:32:04.755Z,7.57
2023-01-13T04:33:04.762Z,7.58
2023-01-13T04:34:04.730Z,7.55
2023-01-13T04:35:04.735Z,7.53
2023-01-13T04:36:04.736Z,7.52
2023-01-13T04:37:04.703Z,7.52
2023-01-13T04:38:04.692Z,7.50
2023-01-13T04:39:04.671Z,7.52
2023-01-13T04:40:04.671Z,7.53
2023-01-13T04:41:04.650Z,7.53
2023-01-13T04:42:04.657Z,7.58
2023-01-13T04:43:04.622Z,7.60
2023-01-13T04:44:04.621Z,7.61
2023-01-13T04:45:04.613Z,7.64
2023-01-13T04:46:04.633Z,7.68
2023-01-13T04:47:04.588Z,7.69
2023-01-13T04:48:04.574Z,7.71
2023-01-13T04:49:04.574Z,7.72
2023-01-13T04:50:04.552Z,7.72
2023-01-13T04:51:04.546Z,7.74
2023-01-13T04:52:04.542Z,7.75
2023-01-13T04:53:04.526Z,7.77
2023-01-13T04:54:04.511Z,7.79
2023-01-13T04:55:04.502Z,7.80
2023-01-13T04:56:04.501Z,7.82
2023-01-13T04:57:04.492Z,7.83
2023-01-13T04:58:04.480Z,7.85
2023-01-13T04:59:04.465Z,7.86
2023-01-13T05:00:04.460Z,7.87
2023-01-13T05:01:04.466Z,7.87
2023-01-13T05:02:04.510Z,7.92
2023-01-13T05:03:04.409Z,7.92
2023-01-13T05:04:04.418Z,7.93
2023-01-13T05:05:04.459Z,7.95
2023-01-13T05:06:04.377Z,7.97
2023-01-13T05:07:04.374Z,7.97
2023-01-13T05:08:04.352Z,7.97
2023-01-13T05:09:04.351Z,7.98
2023-01-13T05:10:04.346Z,7.98
2023-01-13T05:11:04.322Z,8.02
2023-01-13T05:12:04.316Z,8.04
2023-01-13T05:13:04.322Z,8.05
2023-01-13T05:14:04.292Z,8.08
2023-01-13T05:15:04.275Z,8.07
2023-01-13T05:16:06.626Z,8.08
2023-01-13T05:17:04.261Z,8.07
2023-01-13T05:18:04.260Z,8.08
2023-01-13T05:19:04.320Z,8.07
2023-01-13T05:20:04.229Z,8.08
2023-01-13T05:21:04.217Z,8.05
2023-01-13T05:22:04.210Z,8.05
2023-01-13T05:23:04.194Z,8.02
2023-01-13T05:24:04.186Z,8.01
2023-01-13T05:25:04.171Z,7.98
2023-01-13T05:26:04.161Z,7.98
2023-01-13T05:27:04.159Z,7.98
2023-01-13T05:28:04.141Z,7.93
2023-01-13T05:29:04.132Z,7.93
2023-01-13T05:30:04.109Z,7.93
2023-01-13T05:31:04.173Z,7.93
2023-01-13T05:32:04.102Z,7.93
2023-01-13T05:33:04.103Z,7.93
2023-01-13T05:34:04.084Z,7.93
2023-01-13T05:35:04.065Z,7.95
2023-01-13T05:36:04.060Z,7.97
2023-01-13T05:37:04.046Z,7.97
2023-01-13T05:38:04.030Z,7.98
2023-01-13T05:39:04.023Z,7.98
2023-01-13T05:40:04.077Z,8.01
2023-01-13T05:41:03.993Z,8.00
2023-01-13T05:42:03.985Z,8.02
2023-01-13T05:43:03.984Z,8.02
2023-01-13T05:44:03.982Z,8.04
2023-01-13T05:45:03.958Z,8.04
2023-01-13T05:46:04.060Z,8.04
2023-01-13T05:47:03.934Z,8.02
2023-01-13T05:48:03.926Z,8.01
2023-01-13T05:49:03.923Z,8.01
2023-01-13T05:50:03.904Z,8.01
2023-01-13T05:51:03.917Z,8.02
2023-01-13T05:52:03.872Z,8.01
2023-01-13T05:53:03.884Z,8.02
2023-01-13T05:54:03.852Z,8.02
2023-01-13T05:55:03.855Z,8.05
2023-01-13T05:56:03.835Z,8.07
2023-01-13T05:57:03.840Z,8.07
2023-01-13T05:58:03.812Z,8.07
2023-01-13T05:59:03.822Z,8.07
2023-01-13T06:00:03.821Z,8.05
2023-01-13T06:01:03.867Z,8.05
2023-01-13T06:02:03.787Z,8.05
2023-01-13T06:03:03.831Z,8.05
2023-01-13T06:04:03.776Z,8.05
2023-01-13T06:05:03.727Z,8.02
2023-01-13T06:06:03.732Z,8.04
2023-01-13T06:07:03.719Z,8.01
2023-01-13T06:08:03.727Z,8.01
2023-01-13T06:09:03.697Z,7.97
2023-01-13T06:10:03.693Z,7.92
2023-01-13T06:11:03.672Z,7.89
2023-01-13T06:12:03.665Z,7.86
2023-01-13T06:13:03.671Z,7.86
2023-01-13T06:14:03.641Z,7.83
2023-01-13T06:15:03.635Z,7.83
2023-01-13T06:16:03.710Z,7.83
2023-01-13T06:17:03.624Z,7.87
2023-01-13T06:18:03.595Z,7.87
2023-01-13T06:19:03.621Z,7.90
2023-01-13T06:20:03.567Z,7.92
2023-01-13T06:21:03.593Z,7.93
2023-01-13T06:22:03.559Z,7.92
2023-01-13T06:23:03.552Z,7.93
2023-01-13T06:24:03.534Z,7.95
2023-01-13T06:25:03.515Z,7.97
2023-01-13T06:26:03.534Z,7.98
2023-01-13T06:27:03.487Z,7.98
2023-01-13T06:28:03.487Z,7.97
2023-01-13T06:29:03.483Z,7.97
2023-01-13T06:30:03.467Z,7.98
2023-01-13T06:31:03.616Z,7.98
2023-01-13T06:32:03.464Z,8.00
2023-01-13T06:33:03.434Z,7.97
2023-01-13T06:34:03.424Z,7.95
2023-01-13T06:35:05.473Z,7.95
2023-01-13T06:36:03.420Z,7.95
2023-01-13T06:37:03.401Z,7.95
2023-01-13T06:38:03.395Z,7.93
2023-01-13T06:39:03.375Z,7.93
2023-01-13T06:40:03.360Z,7.95
2023-01-13T06:41:03.399Z,7.95
2023-01-13T06:42:03.330Z,7.93
2023-01-13T06:43:03.317Z,7.93
2023-01-13T06:44:03.314Z,7.92
2023-01-13T06:45:03.299Z,7.92
2023-01-13T06:46:03.289Z,7.90
2023-01-13T06:47:03.278Z,7.87
2023-01-13T06:48:03.259Z,7.86
2023-01-13T06:49:03.280Z,7.82
2023-01-13T06:50:03.239Z,7.82
2023-01-13T06:51:03.233Z,7.79
2023-01-13T06:52:03.232Z,7.77
2023-01-13T06:53:03.216Z,7.75
2023-01-13T06:54:03.199Z,7.72
2023-01-13T06:55:03.193Z,7.71
2023-01-13T06:56:03.199Z,7.69
2023-01-13T06:57:03.188Z,7.68
2023-01-13T06:58:03.195Z,7.64
2023-01-13T06:59:03.201Z,7.64
2023-01-13T07:00:03.132Z,7.63
2023-01-13T07:01:03.231Z,7.63
2023-01-13T07:02:03.324Z,7.63
2023-01-13T07:03:04.412Z,7.64
2023-01-13T07:04:03.087Z,7.64
2023-01-13T07:05:03.087Z,7.64
2023-01-13T07:06:03.098Z,7.67
2023-01-13T07:07:03.061Z,7.68
2023-01-13T07:08:03.052Z,7.69
2023-01-13T07:09:03.146Z,7.69
2023-01-13T07:10:03.032Z,7.67
2023-01-13T07:11:03.017Z,7.61
2023-01-13T07:12:03.062Z,7.60
2023-01-13T07:13:03.004Z,7.60
2023-01-13T07:14:03.014Z,7.57
2023-01-13T07:15:02.972Z,7.53
2023-01-13T07:16:03.112Z,7.55
2023-01-13T07:17:02.976Z,7.52
2023-01-13T07:18:02.955Z,7.50
2023-01-13T07:19:02.931Z,7.49
2023-01-13T07:20:02.931Z,7.48
2023-01-13T07:21:02.995Z,7.46
2023-01-13T07:22:02.902Z,7.49
2023-01-13T07:23:02.882Z,7.48
2023-01-13T07:24:02.874Z,7.46
2023-01-13T07:25:02.883Z,7.45
2023-01-13T07:26:02.855Z,7.45
2023-01-13T07:27:02.849Z,7.46
2023-01-13T07:28:02.871Z,7.49
2023-01-13T07:29:02.826Z,7.52
2023-01-13T07:30:02.808Z,7.55
2023-01-13T07:31:02.800Z,7.57
2023-01-13T07:32:02.847Z,7.60
2023-01-13T07:33:02.771Z,7.63
2023-01-13T07:34:03.743Z,7.61
2023-01-13T07:35:02.876Z,7.63
2023-01-13T07:36:02.735Z,7.61
2023-01-13T07:37:02.727Z,7.58
2023-01-13T07:38:02.709Z,7.55
2023-01-13T07:39:02.704Z,7.53
2023-01-13T07:40:02.700Z,7.49
2023-01-13T07:41:02.697Z,7.48
2023-01-13T07:42:02.677Z,7.48
2023-01-13T07:43:02.664Z,7.46
2023-01-13T07:44:02.647Z,7.43
2023-01-13T07:45:02.640Z,7.45
2023-01-13T07:46:02.760Z,7.42
2023-01-13T07:47:02.617Z,7.42
2023-01-13T07:48:02.618Z,7.40
2023-01-13T07:49:02.590Z,7.39
2023-01-13T07:50:02.589Z,7.40
2023-01-13T07:51:02.617Z,7.40
2023-01-13T07:52:02.557Z,7.40
2023-01-13T07:53:02.553Z,7.43
2023-01-13T07:54:02.541Z,7.45
2023-01-13T07:55:02.526Z,7.45
2023-01-13T07:56:02.533Z,7.46
2023-01-13T07:57:02.499Z,7.49
2023-01-13T07:58:02.500Z,7.48
2023-01-13T07:59:02.557Z,7.48
2023-01-13T08:00:02.477Z,7.48
2023-01-13T08:01:02.558Z,7.50
2023-01-13T08:02:02.720Z,7.53
2023-01-13T08:03:02.513Z,7.57
2023-01-13T08:04:02.430Z,7.60
2023-01-13T08:05:02.437Z,7.63
2023-01-13T08:06:02.409Z,7.64
2023-01-13T08:07:02.425Z,7.64
2023-01-13T08:08:02.387Z,7.67
2023-01-13T08:09:02.381Z,7.69
2023-01-13T08:10:02.373Z,7.71
2023-01-13T08:11:02.347Z,7.74
2023-01-13T08:12:02.363Z,7.75
2023-01-13T08:13:02.333Z,7.75
2023-01-13T08:14:02.319Z,7.75
2023-01-13T08:15:02.328Z,7.75
2023-01-13T08:16:02.297Z,7.77
2023-01-13T08:17:02.287Z,7.79
2023-01-13T08:18:02.295Z,7.79
2023-01-13T08:19:03.187Z,7.79
2023-01-13T08:20:02.245Z,7.79
2023-01-13T08:21:02.252Z,7.80
2023-01-13T08:22:02.226Z,7.80
2023-01-13T08:23:02.205Z,7.80
2023-01-13T08:24:02.211Z,7.80
2023-01-13T08:25:02.205Z,7.82
2023-01-13T08:26:02.217Z,7.82
2023-01-13T08:27:02.178Z,7.82
2023-01-13T08:28:02.168Z,7.83
2023-01-13T08:29:02.156Z,7.85
2023-01-13T08:30:02.141Z,7.85
2023-01-13T08:31:02.253Z,7.87
2023-01-13T08:32:02.121Z,7.86
2023-01-13T08:33:02.100Z,7.86
2023-01-13T08:34:02.099Z,7.85
2023-01-13T08:35:02.085Z,7.86
2023-01-13T08:36:02.084Z,7.89
2023-01-13T08:37:02.067Z,7.86
2023-01-13T08:38:02.060Z,7.89
2023-01-13T08:39:02.046Z,7.89
2023-01-13T08:40:02.052Z,7.90
2023-01-13T08:41:02.045Z,7.92
2023-01-13T08:42:02.005Z,7.93
2023-01-13T08:43:02.009Z,7.93
2023-01-13T08:44:02.025Z,7.93
2023-01-13T08:45:01.983Z,7.93
2023-01-13T08:46:02.119Z,7.93
2023-01-13T08:47:01.953Z,7.97
2023-01-13T08:48:01.944Z,7.98
2023-01-13T08:49:01.949Z,8.00
2023-01-13T08:50:01.976Z,8.00
2023-01-13T08:51:01.908Z,8.00
2023-01-13T08:52:01.910Z,8.00
2023-01-13T08:53:01.901Z,7.98
2023-01-13T08:54:01.872Z,8.00
2023-01-13T08:55:01.933Z,8.01
2023-01-13T08:56:01.871Z,8.01
2023-01-13T08:57:01.917Z,8.00
2023-01-13T08:58:14.557Z,8.00
2023-01-13T08:59:02.109Z,8.02
2023-01-13T09:00:01.830Z,8.02
2023-01-13T09:01:01.988Z,8.04
2023-01-13T09:02:02.029Z,8.05
2023-01-13T09:03:01.785Z,8.05
2023-01-13T09:04:01.992Z,8.07
2023-01-13T09:05:01.756Z,8.08
2023-01-13T09:06:01.759Z,8.08
2023-01-13T09:07:01.755Z,8.05
2023-01-13T09:08:01.729Z,8.07
2023-01-13T09:09:01.700Z,8.08
2023-01-13T09:10:01.715Z,8.10
2023-01-13T09:11:01.717Z,8.10
2023-01-13T09:12:01.706Z,8.10
2023-01-13T09:13:01.680Z,8.11
2023-01-13T09:14:03.353Z,8.10
2023-01-13T09:15:01.633Z,8.11
2023-01-13T09:16:01.823Z,8.11
2023-01-13T09:17:01.699Z,8.11
2023-01-13T09:18:01.657Z,8.12
2023-01-13T09:19:01.650Z,8.15
2023-01-13T09:20:01.643Z,8.15
2023-01-13T09:21:01.589Z,8.12
2023-01-13T09:22:01.602Z,8.15
2023-01-13T09:23:01.623Z,8.15
2023-01-13T09:24:01.543Z,8.15
2023-01-13T09:25:01.557Z,8.12
2023-01-13T09:26:01.631Z,8.12
2023-01-13T09:27:01.572Z,8.12
2023-01-13T09:28:01.584Z,8.12
2023-01-13T09:29:01.676Z,8.12
2023-01-13T09:30:01.546Z,8.12
2023-01-13T09:31:01.689Z,8.12
2023-01-13T09:32:01.482Z,8.11
2023-01-13T09:33:01.469Z,8.12
2023-01-13T09:34:01.456Z,8.15
2023-01-13T09:35:01.558Z,8.16
2023-01-13T09:36:01.411Z,8.16
2023-01-13T09:37:01.394Z,8.16
2023-01-13T09:38:01.375Z,8.16
2023-01-13T09:39:01.372Z,8.16
2023-01-13T09:40:01.378Z,8.16
2023-01-13T09:41:01.396Z,8.16
2023-01-13T09:42:01.400Z,8.18
2023-01-13T09:43:01.359Z,8.20
2023-01-13T09:44:01.327Z,8.18
2023-01-13T09:45:01.332Z,8.20
2023-01-13T09:46:01.415Z,8.20
2023-01-13T09:47:01.297Z,8.22
2023-01-13T09:48:01.292Z,8.22
2023-01-13T09:49:01.264Z,8.25
2023-01-13T09:50:01.258Z,8.26
2023-01-13T09:51:01.374Z,8.26
2023-01-13T09:52:01.286Z,8.29
2023-01-13T09:53:01.412Z,8.28
2023-01-13T09:54:01.260Z,8.33
2023-01-13T09:55:01.232Z,8.34
2023-01-13T09:56:01.235Z,8.36
2023-01-13T09:57:01.234Z,8.36
2023-01-13T09:58:01.208Z,8.34
2023-01-13T09:59:01.176Z,8.36
2023-01-13T10:00:01.181Z,8.36
2023-01-13T10:01:01.182Z,8.36
2023-01-13T10:02:01.139Z,8.40
2023-01-13T10:03:01.140Z,8.41
2023-01-13T10:04:01.120Z,8.43
2023-01-13T10:05:01.206Z,8.45
2023-01-13T10:06:01.097Z,8.47
2023-01-13T10:07:01.079Z,8.50
2023-01-13T10:08:01.063Z,8.52
2023-01-13T10:09:01.087Z,8.50
2023-01-13T10:10:01.050Z,8.53
2023-01-13T10:11:01.057Z,8.52
2023-01-13T10:12:01.022Z,8.53
2023-01-13T10:13:01.021Z,8.56
2023-01-13T10:14:01.026Z,8.56
2023-01-13T10:15:01.013Z,8.59
2023-01-13T10:16:02.994Z,8.62
2023-01-13T10:17:01.018Z,8.63
2023-01-13T10:18:00.973Z,8.66
2023-01-13T10:19:00.958Z,8.66
2023-01-13T10:20:00.954Z,8.65
2023-01-13T10:21:00.939Z,8.66
2023-01-13T10:22:00.919Z,8.65
2023-01-13T10:23:00.919Z,8.70
2023-01-13T10:24:00.904Z,8.68
2023-01-13T10:25:00.895Z,8.70
2023-01-13T10:26:00.918Z,8.70
2023-01-13T10:27:00.878Z,8.70
2023-01-13T10:28:00.880Z,8.70
2023-01-13T10:29:00.847Z,8.73
2023-01-13T10:30:00.836Z,8.76
2023-01-13T10:31:00.942Z,8.79
2023-01-13T10:32:00.821Z,8.77
2023-01-13T10:33:00.844Z,8.79
2023-01-13T10:34:00.822Z,8.77
2023-01-13T10:35:00.783Z,8.80
2023-01-13T10:36:00.774Z,8.80
2023-01-13T10:37:00.761Z,8.81
2023-01-13T10:38:00.753Z,8.80
2023-01-13T10:39:00.739Z,8.83
2023-01-13T10:40:00.740Z,8.81
2023-01-13T10:41:00.737Z,8.81
2023-01-13T10:42:00.702Z,8.80
2023-01-13T10:43:00.717Z,8.80
2023-01-13T10:44:00.685Z,8.79
2023-01-13T10:45:00.693Z,8.80
2023-01-13T10:46:00.673Z,8.79
2023-01-13T10:47:00.706Z,8.77
2023-01-13T10:48:00.653Z,8.77
2023-01-13T10:49:00.657Z,8.79
2023-01-13T10:50:00.658Z,8.79
2023-01-13T10:51:00.618Z,8.77
2023-01-13T10:52:00.682Z,8.77
2023-01-13T10:53:00.612Z,8.76
2023-01-13T10:54:00.589Z,8.74
2023-01-13T10:55:00.593Z,8.74
2023-01-13T10:56:00.588Z,8.74
2023-01-13T10:57:00.568Z,8.74
2023-01-13T10:58:00.567Z,8.76
2023-01-13T10:59:00.843Z,8.79
2023-01-13T11:00:00.545Z,8.81
2023-01-13T11:01:00.656Z,8.83
2023-01-13T11:02:01.217Z,8.86
2023-01-13T11:03:00.501Z,8.86
2023-01-13T11:04:00.495Z,8.87
2023-01-13T11:05:00.615Z,8.87
2023-01-13T11:06:00.516Z,8.89
2023-01-13T11:07:00.670Z,8.92
2023-01-13T11:08:00.440Z,8.94
2023-01-13T11:09:00.440Z,8.99
2023-01-13T11:10:00.431Z,8.99
2023-01-13T11:11:00.456Z,8.99
2023-01-13T11:12:00.410Z,9.02
2023-01-13T11:13:00.389Z,9.04
2023-01-13T11:14:00.377Z,9.04
2023-01-13T11:15:00.407Z,9.05
2023-01-13T11:16:00.407Z,9.08
2023-01-13T11:17:00.359Z,9.04
2023-01-13T11:18:00.374Z,9.05
2023-01-13T11:19:00.345Z,9.02
2023-01-13T11:20:00.357Z,9.05
2023-01-13T11:21:00.315Z,9.08
2023-01-13T11:22:00.324Z,9.11
2023-01-13T11:23:00.302Z,9.13
2023-01-13T11:24:00.289Z,9.11
2023-01-13T11:25:00.271Z,9.13
2023-01-13T11:26:00.255Z,9.13
2023-01-13T11:27:00.244Z,9.10
2023-01-13T11:28:00.247Z,9.10
2023-01-13T11:29:00.225Z,9.13
2023-01-13T11:30:00.261Z,9.11
2023-01-13T11:31:00.254Z,9.11
2023-01-13T11:32:00.190Z,9.11
2023-01-13T11:33:00.189Z,9.10
2023-01-13T11:34:00.165Z,9.05
2023-01-13T11:35:00.160Z,9.05
2023-01-13T11:36:00.161Z,9.04
2023-01-13T11:37:00.138Z,9.01
2023-01-13T11:38:00.142Z,9.01
2023-01-13T11:39:00.132Z,8.99
2023-01-13T11:40:00.120Z,8.98
2023-01-13T11:41:00.137Z,8.98
2023-01-13T11:42:00.123Z,8.95
2023-01-13T11:43:00.071Z,8.95
2023-01-13T11:44:00.059Z,8.95
2023-01-13T11:45:00.053Z,8.96
2023-01-13T11:46:00.050Z,8.96
2023-01-13T11:47:00.061Z,8.95
2023-01-13T11:48:00.073Z,8.96
2023-01-13T11:49:00.008Z,8.96
2023-01-13T11:49:59.998Z,8.94
2023-01-13T11:50:59.983Z,8.87
2023-01-13T11:51:59.987Z,8.79
2023-01-13T11:52:59.989Z,8.70
2023-01-13T11:53:59.977Z,8.61
2023-01-13T11:54:59.963Z,8.55
2023-01-13T11:55:59.957Z,8.50
2023-01-13T11:56:59.940Z,8.45
2023-01-13T11:58:00.045Z,8.44
2023-01-13T11:58:59.903Z,8.41
2023-01-13T11:59:59.907Z,8.41
2023-01-13T12:00:59.915Z,8.40
2023-01-13T12:01:59.903Z,8.43
2023-01-13T12:02:59.982Z,8.41
2023-01-13T12:03:59.870Z,8.43
2023-01-13T12:04:59.854Z,8.41
2023-01-13T12:05:59.828Z,8.38
2023-01-13T12:06:59.827Z,8.33
2023-01-13T12:07:59.823Z,8.33
2023-01-13T12:08:59.816Z,8.30
2023-01-13T12:09:59.803Z,8.30
2023-01-13T12:10:59.773Z,8.28
2023-01-13T12:11:59.776Z,8.28
2023-01-13T12:13:00.266Z,8.25
2023-01-13T12:13:59.785Z,8.25
2023-01-13T12:14:59.754Z,8.23
2023-01-13T12:15:59.768Z,8.25
2023-01-13T12:17:01.186Z,8.23
2023-01-13T12:17:59.716Z,8.22
2023-01-13T12:18:59.698Z,8.23
2023-01-13T12:19:59.676Z,8.25
2023-01-13T12:20:59.679Z,8.25
2023-01-13T12:21:59.685Z,8.26
2023-01-13T12:22:59.649Z,8.26
2023-01-13T12:23:59.673Z,8.29
2023-01-13T12:24:59.655Z,8.29
2023-01-13T12:25:59.639Z,8.34
2023-01-13T12:26:59.633Z,8.34
2023-01-13T12:27:59.610Z,8.36
2023-01-13T12:28:59.705Z,8.36
2023-01-13T12:29:59.622Z,8.38
2023-01-13T12:30:59.567Z,8.38
2023-01-13T12:31:59.592Z,8.37
2023-01-13T12:32:59.536Z,8.40
2023-01-13T12:33:59.578Z,8.44
2023-01-13T12:34:59.524Z,8.44
2023-01-13T12:35:59.525Z,8.45
2023-01-13T12:36:59.492Z,8.45
2023-01-13T12:37:59.506Z,8.45
2023-01-13T12:38:59.480Z,8.47
2023-01-13T12:39:59.510Z,8.43
2023-01-13T12:40:59.478Z,8.44
2023-01-13T12:41:59.483Z,8.44
2023-01-13T12:42:59.449Z,8.47
2023-01-13T12:43:59.448Z,8.47
2023-01-13T12:44:59.427Z,8.47
2023-01-13T12:45:59.469Z,8.52
2023-01-13T12:46:59.399Z,8.52
2023-01-13T12:47:59.386Z,8.52
2023-01-13T12:48:59.516Z,8.47
2023-01-13T12:49:59.381Z,8.40
2023-01-13T12:50:59.361Z,8.34
2023-01-13T12:51:59.352Z,8.30
2023-01-13T12:52:59.332Z,8.28
2023-01-13T12:53:59.317Z,8.26
2023-01-13T12:54:59.356Z,8.25
2023-01-13T12:55:59.306Z,8.22
2023-01-13T12:56:59.292Z,8.18
2023-01-13T12:57:59.293Z,8.20
2023-01-13T12:58:59.277Z,8.22
2023-01-13T12:59:59.352Z,8.23
2023-01-13T13:00:59.362Z,8.25
2023-01-13T13:01:59.442Z,8.28
2023-01-13T13:02:59.310Z,8.29
2023-01-13T13:03:59.226Z,8.30
2023-01-13T13:04:59.207Z,8.23
2023-01-13T13:05:59.202Z,8.22
2023-01-13T13:06:59.194Z,8.16
2023-01-13T13:07:59.175Z,8.11
2023-01-13T13:09:00.654Z,8.08
2023-01-13T13:09:59.171Z,8.08
2023-01-13T13:10:59.150Z,8.07
2023-01-13T13:11:59.162Z,8.08
2023-01-13T13:12:59.129Z,8.10
2023-01-13T13:13:59.116Z,8.07
2023-01-13T13:15:00.294Z,8.07
2023-01-13T13:15:59.090Z,8.07